createdAt,value
2023-03-14T00:04:23.011Z,18.54
2023-03-14T00:09:25.439Z,18.50
2023-03-14T00:14:27.874Z,18.44
2023-03-14T00:19:30.461Z,18.39
2023-03-14T00:24:33.161Z,18.35
2023-03-14T00:29:36.072Z,18.33
2023-03-14T00:34:41.287Z,18.29
2023-03-14T00:39:44.454Z,18.22
2023-03-14T00:44:47.171Z,18.09
2023-03-14T00:49:49.877Z,18.07
2023-03-14T00:54:52.367Z,18.04
2023-03-14T00:59:55.862Z,18.03
2023-03-14T01:04:58.926Z,17.99
2023-03-14T01:10:41.307Z,17.94
2023-03-14T01:15:45.792Z,17.90
2023-03-14T01:21:04.474Z,17.87
2023-03-14T01:26:11.612Z,17.82
2023-03-14T01:31:15.897Z,17.76
2023-03-14T01:36:18.468Z,17.76
2023-03-14T01:41:26.695Z,17.75
2023-03-14T01:46:44.299Z,17.72
2023-03-14T01:52:03.528Z,17.68
2023-03-14T01:57:33.413Z,17.58
2023-03-14T02:05:23.001Z,17.38
2023-03-14T02:10:40.400Z,17.39
2023-03-14T02:15:46.663Z,17.36
2023-03-14T02:21:01.333Z,17.35
2023-03-14T02:26:21.156Z,17.28
2023-03-14T02:31:24.458Z,17.21
2023-03-14T02:36:27.683Z,17.15
2023-03-14T02:41:32.241Z,17.13
2023-03-14T02:46:39.317Z,17.08
2023-03-14T02:51:44.312Z,17.07
2023-03-14T02:56:47.194Z,17.07
2023-03-14T03:01:50.357Z,17.08
2023-03-14T03:06:53.667Z,17.10
2023-03-14T03:11:56.705Z,17.09
2023-03-14T03:17:02.339Z,17.07
2023-03-14T03:22:05.275Z,17.03
2023-03-14T03:27:10.551Z,16.97
2023-03-14T03:32:13.241Z,16.97
2023-03-14T03:37:15.583Z,16.95
2023-03-14T03:42:18.921Z,16.91
2023-03-14T03:47:21.331Z,16.88
2023-03-14T03:52:23.805Z,16.85
2023-03-14T03:57:26.136Z,16.79
2023-03-14T04:02:28.281Z,16.75
2023-03-14T04:07:33.024Z,16.73
2023-03-14T04:12:38.965Z,16.67
2023-03-14T04:17:45.705Z,16.64
2023-03-14T04:22:50.052Z,16.59
2023-03-14T04:27:53.601Z,16.52
2023-03-14T04:33:05.481Z,16.45
2023-03-14T04:38:12.170Z,16.38
2023-03-14T04:43:16.025Z,16.33
2023-03-14T04:48:27.855Z,16.26
2023-03-14T04:53:32.539Z,16.24
2023-03-14T04:58:36.033Z,16.16
2023-03-14T05:12:48.698Z,16.32
2023-03-14T05:18:09.352Z,16.26
2023-03-14T05:23:43.158Z,16.18
2023-03-14T05:29:07.993Z,16.09
2023-03-14T05:34:21.351Z,16.02
2023-03-14T05:39:46.164Z,15.98
2023-03-14T05:45:08.538Z,15.90
2023-03-14T05:50:29.024Z,15.82
2023-03-14T05:55:56.564Z,15.74
2023-03-14T06:01:13.466Z,15.63
2023-03-14T06:06:39.252Z,15.57
2023-03-14T06:11:43.255Z,15.53
2023-03-14T06:16:49.156Z,15.47
2023-03-14T06:21:53.265Z,15.40
2023-03-14T06:26:55.854Z,15.37
2023-03-14T06:31:58.368Z,15.30
2023-03-14T06:37:01.676Z,15.24
2023-03-14T06:42:03.795Z,15.21
2023-03-14T06:47:06.296Z,15.19
2023-03-14T06:52:10.427Z,15.16
2023-03-14T06:57:12.677Z,15.15
2023-03-14T07:02:14.868Z,15.14
2023-03-14T07:07:18.785Z,15.23
2023-03-14T07:12:21.245Z,15.50
2023-03-14T07:17:23.387Z,16.00
2023-03-14T07:22:25.336Z,16.36
2023-03-14T07:27:31.425Z,16.94
2023-03-14T07:32:42.989Z,17.58
2023-03-14T07:37:45.764Z,18.05
2023-03-14T07:42:50.685Z,18.48
2023-03-14T07:48:03.123Z,18.76
2023-03-14T07:53:05.131Z,19.09
2023-03-14T07:58:07.560Z,19.36
2023-03-14T08:03:09.466Z,19.48
2023-03-14T08:08:11.517Z,19.62
2023-03-14T08:13:14.259Z,19.59
2023-03-14T08:18:16.418Z,19.78
2023-03-14T08:23:18.508Z,19.89
2023-03-14T08:28:21.649Z,19.94
2023-03-14T08:33:24.637Z,19.97
2023-03-14T08:38:27.306Z,19.88
2023-03-14T08:43:29.826Z,19.98
2023-03-14T08:48:32.110Z,20.14
2023-03-14T08:53:34.658Z,20.22
2023-03-14T08:58:39.015Z,20.23
2023-03-14T09:03:41.096Z,20.46
2023-03-14T09:08:42.968Z,20.65
2023-03-14T09:13:46.084Z,20.72
2023-03-14T09:18:48.302Z,20.87
2023-03-14T09:23:50.839Z,20.93
2023-03-14T09:28:53.072Z,21.08
2023-03-14T09:33:55.258Z,21.20
2023-03-14T09:39:03.738Z,21.38
2023-03-14T09:44:32.270Z,21.60
2023-03-14T09:49:38.820Z,21.62
2023-03-14T09:54:47.801Z,21.44
2023-03-14T09:59:51.470Z,21.43
2023-03-14T10:04:54.548Z,21.49
2023-03-14T10:09:57.429Z,21.69
2023-03-14T10:15:04.898Z,21.96
2023-03-14T10:20:07.337Z,22.14
2023-03-14T10:25:30.420Z,22.28
2023-03-14T10:30:45.481Z,22.13
2023-03-14T10:35:56.009Z,22.32
2023-03-14T10:40:59.680Z,22.60
2023-03-14T10:46:17.416Z,22.57
2023-03-14T10:51:38.146Z,22.46
2023-03-14T10:56:40.290Z,22.50
2023-03-14T11:02:04.538Z,22.45
2023-03-14T11:07:28.663Z,22.32
2023-03-14T11:12:52.139Z,22.20
2023-03-14T11:18:34.727Z,22.32
2023-03-14T11:24:12.144Z,22.18
2023-03-14T11:29:20.355Z,22.07
2023-03-14T11:34:41.532Z,22.26
2023-03-14T11:39:57.140Z,22.34
2023-03-14T11:45:01.983Z,22.49
2023-03-14T11:50:32.709Z,22.54
2023-03-14T11:55:41.254Z,22.69
2023-03-14T12:00:52.934Z,22.88
2023-03-14T12:06:33.616Z,23.04
2023-03-14T12:11:49.589Z,23.17
2023-03-14T12:16:59.330Z,23.33
2023-03-14T12:22:10.439Z,23.39
2023-03-14T12:27:34.901Z,23.57
2023-03-14T12:32:37.020Z,23.65
2023-03-14T12:37:47.169Z,23.76
2023-03-14T12:42:55.877Z,23.93
2023-03-14T12:48:11.863Z,24.00
2023-03-14T12:53:19.758Z,24.03
2023-03-14T12:58:27.933Z,24.20
2023-03-14T13:04:08.600Z,24.37
2023-03-14T13:09:34.049Z,24.40
2023-03-14T13:14:36.570Z,24.40
2023-03-14T13:19:39.838Z,24.31
2023-03-14T13:24:42.402Z,24.21
2023-03-14T13:29:44.613Z,24.08
2023-03-14T13:34:48.591Z,23.91
2023-03-14T13:39:58.730Z,23.80
2023-03-14T13:45:01.167Z,23.77
2023-03-14T13:50:03.409Z,23.80
2023-03-14T13:55:07.473Z,23.77
2023-03-14T14:00:25.076Z,23.69
2023-03-14T14:05:37.343Z,23.66
2023-03-14T14:10:40.789Z,23.61
2023-03-14T14:15:46.595Z,23.63
2023-03-14T14:20:49.637Z,23.65
2023-03-14T14:25:53.896Z,23.67
2023-03-14T14:31:04.571Z,23.58
2023-03-14T14:36:17.701Z,23.57
2023-03-14T14:41:41.855Z,23.51
2023-03-14T14:47:05.728Z,23.53
2023-03-14T14:52:14.657Z,23.39
2023-03-14T14:57:23.406Z,23.34
2023-03-14T15:02:38.930Z,23.22
2023-03-14T15:07:41.264Z,23.10
2023-03-14T15:12:43.286Z,23.00
2023-03-14T15:17:45.493Z,22.93
2023-03-14T15:22:54.755Z,22.87
2023-03-14T15:27:56.932Z,22.74
2023-03-14T15:32:58.961Z,22.67
2023-03-14T15:38:06.892Z,22.61
2023-03-14T15:43:09.756Z,22.54
2023-03-14T15:48:22.655Z,22.54
2023-03-14T15:53:24.739Z,22.55
2023-03-14T15:58:26.861Z,22.43
2023-03-14T16:03:38.629Z,22.27
2023-03-14T16:08:40.638Z,22.13
2023-03-14T16:13:48.309Z,21.97
2023-03-14T16:18:50.407Z,21.90
2023-03-14T16:23:52.508Z,21.88
2023-03-14T16:28:59.270Z,21.75
2023-03-14T16:34:04.853Z,21.60
2023-03-14T16:39:06.884Z,21.52
2023-03-14T16:44:08.752Z,21.45
2023-03-14T16:49:10.918Z,21.39
2023-03-14T16:54:13.262Z,21.32
2023-03-14T17:04:24.134Z,21.06
2023-03-14T17:09:26.350Z,20.90
2023-03-14T17:14:28.623Z,20.82
2023-03-14T17:19:40.931Z,20.76
2023-03-14T17:24:43.454Z,20.66
2023-03-14T17:29:46.741Z,20.59
2023-03-14T17:34:54.547Z,20.50
2023-03-14T17:39:56.994Z,20.39
2023-03-14T17:44:59.260Z,20.31
2023-03-14T17:50:05.208Z,20.17
2023-03-14T17:55:08.415Z,20.09
2023-03-14T18:00:11.932Z,19.97
2023-03-14T18:05:14.397Z,19.90
2023-03-14T18:10:17.552Z,19.79
2023-03-14T18:15:23.833Z,19.39
2023-03-14T18:20:26.343Z,19.16
2023-03-14T18:25:28.344Z,18.97
2023-03-14T18:30:30.524Z,18.86
2023-03-14T18:35:33.462Z,18.74
2023-03-14T18:40:35.783Z,18.65
2023-03-14T18:45:38.925Z,18.63
2023-03-14T18:50:41.668Z,18.61
2023-03-14T18:55:43.913Z,18.62
2023-03-14T19:00:46.842Z,18.57
2023-03-14T19:05:49.055Z,18.44
2023-03-14T19:10:55.991Z,18.39
2023-03-14T19:15:58.494Z,18.30
2023-03-14T19:21:02.016Z,18.20
2023-03-14T19:26:10.051Z,18.12
2023-03-14T19:31:14.185Z,18.03
2023-03-14T19:36:19.050Z,17.95
2023-03-14T19:41:25.694Z,17.83
2023-03-14T19:46:36.353Z,17.66
2023-03-14T19:51:38.383Z,17.56
2023-03-14T19:56:40.573Z,17.45
2023-03-14T20:01:50.994Z,17.34
2023-03-14T20:06:56.347Z,17.28
2023-03-14T20:12:00.143Z,17.22
2023-03-14T20:17:05.358Z,17.24
2023-03-14T20:22:07.429Z,17.24
2023-03-14T20:27:09.666Z,17.24
2023-03-14T20:32:11.676Z,17.19
2023-03-14T20:37:13.675Z,17.16
2023-03-14T20:42:17.981Z,17.09
2023-03-14T20:47:20.781Z,17.05
2023-03-14T20:52:27.335Z,17.02
2023-03-14T20:57:29.585Z,16.99
2023-03-14T21:02:39.502Z,16.97
2023-03-14T21:07:41.816Z,16.91
2023-03-14T21:12:44.069Z,16.82
2023-03-14T21:17:46.571Z,16.78
2023-03-14T21:22:49.260Z,16.75
2023-03-14T21:27:51.956Z,16.75
2023-03-14T21:32:54.315Z,16.74
2023-03-14T21:37:56.757Z,16.73
2023-03-14T21:42:59.290Z,16.71
2023-03-14T21:48:02.670Z,16.71
2023-03-14T21:53:05.678Z,16.66
2023-03-14T21:58:07.800Z,16.65
2023-03-14T22:03:13.336Z,16.61
2023-03-14T22:08:17.270Z,16.55
2023-03-14T22:13:20.841Z,16.54
2023-03-14T22:18:25.357Z,16.50
2023-03-14T22:23:30.708Z,16.46
2023-03-14T22:28:36.753Z,16.43
2023-03-14T22:33:38.738Z,16.39
2023-03-14T22:38:40.809Z,16.35
2023-03-14T22:43:42.561Z,16.29
2023-03-14T22:48:44.613Z,16.28
2023-03-14T22:53:46.704Z,16.24
2023-03-14T22:58:48.762Z,16.22
2023-03-14T23:03:50.840Z,16.18
2023-03-14T23:08:52.748Z,16.12
2023-03-14T23:13:54.956Z,16.03
2023-03-14T23:18:58.683Z,15.90
2023-03-14T23:24:05.824Z,15.85
2023-03-14T23:29:07.999Z,15.80
2023-03-14T23:34:09.896Z,15.72
2023-03-14T23:39:13.288Z,15.69
2023-03-14T23:44:23.169Z,15.63
2023-03-14T23:49:25.183Z,15.63
2023-03-14T23:54:27.952Z,15.60
2023-03-14T23:59:31.830Z,15.54
